createdAt,value
2022-07-25T00:02:16.343Z,48.31
2022-07-25T00:05:01.848Z,48.60
2022-07-25T00:07:40.703Z,48.68
2022-07-25T00:10:21.241Z,48.88
2022-07-25T00:12:56.607Z,48.74
2022-07-25T00:15:30.739Z,48.81
2022-07-25T00:18:09.779Z,48.90
2022-07-25T00:20:56.530Z,48.91
2022-07-25T00:23:36.241Z,49.16
2022-07-25T00:26:27.904Z,49.33
2022-07-25T00:29:00.513Z,49.70
2022-07-25T00:31:29.459Z,49.45
2022-07-25T00:34:23.767Z,49.74
2022-07-25T00:36:56.544Z,50.09
2022-07-25T00:39:45.707Z,50.10
2022-07-25T00:42:25.524Z,50.42
2022-07-25T00:44:57.075Z,50.75
2022-07-25T00:47:26.263Z,51.64
2022-07-25T00:49:55.098Z,51.33
2022-07-25T00:52:24.790Z,51.43
2022-07-25T00:54:53.440Z,51.67
2022-07-25T00:57:23.537Z,51.73
2022-07-25T00:59:52.352Z,51.83
2022-07-25T01:02:21.279Z,51.79
2022-07-25T01:04:50.144Z,52.22
2022-07-25T01:07:18.884Z,52.36
2022-07-25T01:09:48.349Z,52.42
2022-07-25T01:12:16.986Z,52.02
2022-07-25T01:14:46.910Z,52.36
2022-07-25T01:17:16.031Z,52.42
2022-07-25T01:19:46.420Z,52.28
2022-07-25T01:22:16.595Z,52.27
2022-07-25T01:24:45.244Z,52.75
2022-07-25T01:27:17.364Z,52.46
2022-07-25T01:29:46.494Z,52.55
2022-07-25T01:32:15.115Z,52.84
2022-07-25T01:34:43.706Z,52.71
2022-07-25T01:37:12.550Z,53.12
2022-07-25T01:39:42.490Z,52.90
2022-07-25T01:42:11.084Z,53.35
2022-07-25T01:44:39.576Z,53.45
2022-07-25T01:47:08.289Z,53.53
2022-07-25T01:49:39.122Z,53.83
2022-07-25T01:52:08.357Z,54.04
2022-07-25T01:54:37.523Z,54.12
2022-07-25T01:57:08.707Z,54.14
2022-07-25T01:59:40.256Z,54.40
2022-07-25T02:02:10.659Z,54.50
2022-07-25T02:04:39.628Z,54.85
2022-07-25T02:07:08.310Z,55.24
2022-07-25T02:09:37.218Z,54.86
2022-07-25T02:12:08.246Z,55.15
2022-07-25T02:14:37.230Z,55.05
2022-07-25T02:17:06.235Z,55.17
2022-07-25T02:19:34.994Z,55.52
2022-07-25T02:22:03.965Z,55.46
2022-07-25T02:24:32.676Z,55.70
2022-07-25T02:27:01.307Z,55.71
2022-07-25T02:29:32.346Z,55.79
2022-07-25T02:32:01.272Z,56.13
2022-07-25T02:34:30.127Z,56.05
2022-07-25T02:36:58.747Z,56.21
2022-07-25T02:39:27.534Z,56.07
2022-07-25T02:41:56.385Z,56.91
2022-07-25T02:44:25.339Z,56.51
2022-07-25T02:46:55.350Z,57.18
2022-07-25T02:49:23.978Z,56.79
2022-07-25T02:51:52.611Z,57.01
2022-07-25T02:54:21.527Z,57.31
2022-07-25T02:56:50.086Z,57.14
2022-07-25T02:59:19.179Z,57.62
2022-07-25T03:01:47.801Z,57.40
2022-07-25T03:04:17.964Z,57.52
2022-07-25T03:06:48.599Z,57.33
2022-07-25T03:09:17.168Z,57.38
2022-07-25T03:11:46.108Z,57.74
2022-07-25T03:14:14.954Z,57.25
2022-07-25T03:16:43.666Z,57.38
2022-07-25T03:19:13.720Z,57.43
2022-07-25T03:21:43.758Z,57.32
2022-07-25T03:24:14.513Z,57.15
2022-07-25T03:26:43.457Z,57.10
2022-07-25T03:29:12.334Z,57.19
2022-07-25T03:31:41.129Z,57.13
2022-07-25T03:34:10.288Z,57.17
2022-07-25T03:36:39.221Z,57.04
2022-07-25T03:39:09.378Z,57.35
2022-07-25T03:41:38.315Z,57.29
2022-07-25T03:44:07.537Z,57.12
2022-07-25T03:46:36.616Z,57.12
2022-07-25T03:49:05.911Z,56.86
2022-07-25T03:51:35.014Z,56.93
2022-07-25T03:54:04.695Z,56.93
2022-07-25T03:56:43.322Z,56.67
2022-07-25T03:59:16.346Z,56.57
2022-07-25T04:01:46.390Z,56.75
2022-07-25T04:04:16.940Z,56.38
2022-07-25T04:06:45.671Z,56.22
2022-07-25T04:09:15.796Z,56.27
2022-07-25T04:11:45.907Z,56.10
2022-07-25T04:14:14.901Z,56.35
2022-07-25T04:16:43.767Z,56.22
2022-07-25T04:19:12.577Z,56.50
2022-07-25T04:21:41.170Z,56.22
2022-07-25T04:24:10.226Z,56.27
2022-07-25T04:26:39.104Z,56.15
2022-07-25T04:29:09.083Z,55.83
2022-07-25T04:31:37.994Z,56.01
2022-07-25T04:34:07.438Z,55.98
2022-07-25T04:36:36.496Z,55.49
2022-07-25T04:39:06.110Z,54.96
2022-07-25T04:41:35.091Z,54.86
2022-07-25T04:44:04.102Z,54.37
2022-07-25T04:46:36.611Z,54.25
2022-07-25T04:49:05.567Z,54.09
2022-07-25T04:51:34.456Z,53.86
2022-07-25T04:54:03.483Z,53.79
2022-07-25T04:56:32.375Z,53.67
2022-07-25T04:59:06.768Z,53.12
2022-07-25T05:01:37.793Z,53.39
2022-07-25T05:04:07.419Z,53.25
2022-07-25T05:06:36.508Z,52.96
2022-07-25T05:09:05.571Z,52.83
2022-07-25T05:11:34.681Z,52.89
2022-07-25T05:14:03.709Z,52.78
2022-07-25T05:16:33.025Z,52.44
2022-07-25T05:19:03.087Z,52.00
2022-07-25T05:21:31.918Z,51.70
2022-07-25T05:24:01.207Z,51.38
2022-07-25T05:26:30.182Z,50.99
2022-07-25T05:28:59.160Z,50.63
2022-07-25T05:31:27.902Z,50.38
2022-07-25T05:33:57.179Z,50.06
2022-07-25T05:36:30.737Z,49.66
2022-07-25T05:39:01.100Z,49.07
2022-07-25T05:41:30.521Z,48.62
2022-07-25T05:44:02.543Z,48.24
2022-07-25T05:46:33.387Z,48.06
2022-07-25T05:49:02.491Z,47.94
2022-07-25T05:51:32.759Z,47.84
2022-07-25T05:54:01.762Z,47.71
2022-07-25T05:56:30.718Z,47.48
2022-07-25T05:58:59.495Z,47.31
2022-07-25T06:01:28.585Z,47.16
2022-07-25T06:03:57.529Z,47.00
2022-07-25T06:06:27.192Z,46.56
2022-07-25T06:08:57.628Z,46.67
2022-07-25T06:11:28.095Z,46.69
2022-07-25T06:13:59.900Z,46.57
2022-07-25T06:16:30.028Z,46.33
2022-07-25T06:19:00.959Z,46.21
2022-07-25T06:21:29.740Z,46.09
2022-07-25T06:23:59.798Z,45.89
2022-07-25T06:26:28.552Z,45.96
2022-07-25T06:28:57.433Z,45.88
2022-07-25T06:31:26.567Z,45.90
2022-07-25T06:33:55.283Z,45.88
2022-07-25T06:36:23.995Z,45.85
2022-07-25T06:39:03.531Z,45.53
2022-07-25T06:41:32.588Z,45.31
2022-07-25T06:44:01.306Z,45.23
2022-07-25T06:46:32.986Z,44.94
2022-07-25T06:49:01.846Z,44.94
2022-07-25T06:51:30.879Z,44.37
2022-07-25T06:54:00.272Z,43.96
2022-07-25T06:56:32.976Z,43.85
2022-07-25T06:59:02.175Z,43.58
2022-07-25T07:01:31.229Z,43.44
2022-07-25T07:04:00.173Z,43.42
2022-07-25T07:06:29.090Z,43.27
2022-07-25T07:08:58.345Z,42.88
2022-07-25T07:11:27.251Z,42.52
2022-07-25T07:13:57.402Z,42.13
2022-07-25T07:16:26.437Z,42.32
2022-07-25T07:18:55.410Z,42.02
2022-07-25T07:21:24.693Z,41.99
2022-07-25T07:23:57.693Z,41.65
2022-07-25T07:26:26.396Z,41.37
2022-07-25T07:28:56.769Z,41.41
2022-07-25T07:31:25.831Z,41.33
2022-07-25T07:33:54.519Z,41.21
2022-07-25T07:36:23.731Z,40.92
2022-07-25T07:38:53.111Z,41.00
2022-07-25T07:41:22.718Z,40.69
2022-07-25T07:43:51.904Z,40.87
2022-07-25T07:46:22.164Z,40.62
2022-07-25T07:49:08.015Z,40.38
2022-07-25T07:51:37.056Z,40.36
2022-07-25T07:54:24.061Z,40.19
2022-07-25T07:56:52.851Z,39.86
2022-07-25T07:59:22.100Z,39.67
2022-07-25T08:01:52.259Z,39.58
2022-07-25T08:04:21.264Z,39.40
2022-07-25T08:06:49.917Z,39.45
2022-07-25T08:09:18.615Z,39.39
2022-07-25T08:11:47.489Z,39.41
2022-07-25T08:14:16.110Z,39.14
2022-07-25T08:16:44.829Z,38.85
2022-07-25T08:19:14.951Z,38.89
2022-07-25T08:21:44.106Z,38.69
2022-07-25T08:24:15.971Z,38.47
2022-07-25T08:26:44.728Z,38.49
2022-07-25T08:29:25.077Z,38.37
2022-07-25T08:31:56.950Z,38.37
2022-07-25T08:34:26.966Z,37.77
2022-07-25T08:36:56.474Z,37.57
2022-07-25T08:39:25.028Z,37.42
2022-07-25T08:41:54.157Z,37.47
2022-07-25T08:44:23.233Z,37.53
2022-07-25T08:46:52.533Z,37.22
2022-07-25T08:49:21.676Z,37.29
2022-07-25T08:51:52.698Z,36.76
2022-07-25T08:54:22.947Z,36.95
2022-07-25T08:56:52.081Z,36.85
2022-07-25T08:59:20.788Z,36.66
2022-07-25T09:01:50.470Z,36.24
2022-07-25T09:04:22.127Z,36.46
2022-07-25T09:06:53.384Z,36.28
2022-07-25T09:09:33.823Z,36.26
2022-07-25T09:12:04.002Z,36.49
2022-07-25T09:14:41.842Z,35.82
2022-07-25T09:17:22.388Z,35.78
2022-07-25T09:19:58.435Z,35.45
2022-07-25T09:22:30.442Z,35.49
2022-07-25T09:24:59.233Z,35.36
2022-07-25T09:27:34.493Z,35.40
2022-07-25T09:30:13.952Z,35.11
2022-07-25T09:32:43.159Z,34.97
2022-07-25T09:35:12.736Z,34.60
2022-07-25T09:37:45.999Z,33.71
2022-07-25T09:40:16.730Z,33.61
2022-07-25T09:42:52.620Z,33.35
2022-07-25T09:45:21.392Z,33.15
2022-07-25T09:47:57.398Z,32.90
2022-07-25T09:50:29.561Z,32.95
2022-07-25T09:53:03.176Z,32.57
2022-07-25T09:55:32.749Z,32.59
2022-07-25T09:58:01.540Z,32.21
2022-07-25T10:00:32.651Z,32.08
2022-07-25T10:03:18.130Z,32.24
2022-07-25T10:06:09.196Z,31.66
2022-07-25T10:08:41.578Z,31.25
2022-07-25T10:11:22.308Z,30.63
2022-07-25T10:13:52.077Z,31.39
2022-07-25T10:16:23.916Z,30.66
2022-07-25T10:18:55.460Z,30.30
2022-07-25T10:21:28.449Z,30.63
2022-07-25T10:24:06.236Z,30.56
2022-07-25T10:26:39.171Z,30.03
2022-07-25T10:29:11.310Z,29.98
2022-07-25T10:31:50.556Z,29.83
2022-07-25T10:34:31.949Z,29.25
2022-07-25T10:37:12.143Z,29.35
2022-07-25T10:39:45.754Z,29.39
2022-07-25T10:42:16.806Z,29.60
2022-07-25T10:44:48.725Z,29.62
2022-07-25T10:47:19.685Z,29.59
2022-07-25T10:50:13.832Z,29.36
2022-07-25T10:52:43.475Z,29.34
2022-07-25T10:55:24.963Z,28.93
2022-07-25T10:58:16.986Z,28.57
2022-07-25T11:00:46.852Z,29.13
2022-07-25T11:03:18.421Z,29.05
2022-07-25T11:05:48.315Z,28.82
2022-07-25T11:08:22.598Z,28.93
2022-07-25T11:10:54.346Z,28.66
2022-07-25T11:13:23.132Z,28.85
2022-07-25T11:15:52.480Z,28.44
2022-07-25T11:18:32.987Z,28.71
2022-07-25T11:21:06.516Z,28.54
2022-07-25T11:23:36.990Z,28.57
2022-07-25T11:26:09.761Z,28.53
2022-07-25T11:28:44.622Z,28.70
2022-07-25T11:31:14.699Z,28.92
2022-07-25T11:33:47.867Z,28.46
2022-07-25T11:36:17.349Z,28.18
2022-07-25T11:38:50.887Z,28.25
2022-07-25T11:41:32.422Z,27.78
2022-07-25T11:44:01.228Z,28.19
2022-07-25T11:46:30.101Z,27.84
2022-07-25T11:49:08.659Z,27.68
2022-07-25T11:51:39.784Z,27.77
2022-07-25T11:54:13.495Z,28.25
2022-07-25T11:56:45.755Z,27.76
2022-07-25T11:59:15.255Z,27.97
2022-07-25T12:01:45.147Z,27.70
2022-07-25T12:04:18.290Z,27.83
2022-07-25T12:06:50.952Z,27.51
2022-07-25T12:09:23.436Z,27.35
2022-07-25T12:12:05.105Z,27.41
2022-07-25T12:14:43.963Z,27.29
2022-07-25T12:17:12.967Z,27.40
2022-07-25T12:19:46.165Z,27.66
2022-07-25T12:22:17.430Z,27.41
2022-07-25T12:24:46.129Z,27.61
2022-07-25T12:27:16.118Z,27.10
2022-07-25T12:29:44.810Z,27.41
2022-07-25T12:32:13.724Z,26.80
2022-07-25T12:34:43.897Z,26.76
2022-07-25T12:37:13.128Z,26.72
2022-07-25T12:39:42.134Z,26.15
2022-07-25T12:42:10.823Z,26.27
2022-07-25T12:44:41.122Z,26.46
2022-07-25T12:47:10.010Z,26.41
2022-07-25T12:49:38.769Z,26.56
2022-07-25T12:52:07.890Z,26.47
2022-07-25T12:54:36.793Z,26.46
2022-07-25T12:57:07.193Z,26.70
2022-07-25T12:59:36.308Z,26.70
2022-07-25T13:02:07.072Z,26.11
2022-07-25T13:04:36.637Z,26.45
2022-07-25T13:07:05.467Z,26.53
2022-07-25T13:09:43.306Z,26.20
2022-07-25T13:12:16.376Z,26.68
2022-07-25T13:14:45.438Z,26.54
2022-07-25T13:17:15.442Z,26.63
2022-07-25T13:19:44.151Z,26.83
2022-07-25T13:22:13.061Z,26.82
2022-07-25T13:24:41.749Z,26.68
2022-07-25T13:27:10.668Z,26.75
2022-07-25T13:29:39.834Z,26.57
2022-07-25T13:32:09.480Z,27.04
2022-07-25T13:34:39.692Z,27.17
2022-07-25T13:37:08.422Z,27.03
2022-07-25T13:39:38.642Z,27.11
2022-07-25T13:42:08.059Z,26.99
2022-07-25T13:44:36.702Z,27.12
2022-07-25T13:47:05.709Z,26.98
2022-07-25T13:49:34.588Z,26.92
2022-07-25T13:52:04.787Z,27.38
2022-07-25T13:54:34.165Z,27.11
2022-07-25T13:57:04.452Z,26.78
2022-07-25T13:59:33.353Z,26.58
2022-07-25T14:02:02.042Z,27.13
2022-07-25T14:04:31.084Z,27.11
2022-07-25T14:07:01.901Z,26.74
2022-07-25T14:09:32.089Z,27.00
2022-07-25T14:12:00.824Z,26.97
2022-07-25T14:14:29.797Z,26.96
2022-07-25T14:16:59.648Z,26.30
2022-07-25T14:19:28.327Z,26.29
2022-07-25T14:21:56.987Z,26.10
2022-07-25T14:24:25.628Z,26.41
2022-07-25T14:26:55.714Z,25.92
2022-07-25T14:29:30.098Z,26.26
2022-07-25T14:31:59.478Z,25.97
2022-07-25T14:34:28.190Z,25.90
2022-07-25T14:36:56.998Z,25.76
2022-07-25T14:39:25.724Z,25.53
2022-07-25T14:41:56.026Z,25.23
2022-07-25T14:44:26.741Z,25.41
2022-07-25T14:46:56.691Z,25.19
2022-07-25T14:49:29.089Z,25.06
2022-07-25T14:51:58.034Z,24.89
2022-07-25T14:54:28.408Z,24.90
2022-07-25T14:56:59.912Z,24.69
2022-07-25T14:59:28.623Z,24.42
2022-07-25T15:01:57.252Z,24.46
2022-07-25T15:04:26.152Z,23.91
2022-07-25T15:06:54.805Z,24.19
2022-07-25T15:09:23.576Z,24.21
2022-07-25T15:11:52.223Z,24.39
2022-07-25T15:14:23.083Z,24.47
2022-07-25T15:16:52.175Z,24.02
2022-07-25T15:19:21.122Z,23.76
2022-07-25T15:21:57.500Z,23.74
2022-07-25T15:24:29.195Z,23.76
2022-07-25T15:26:58.701Z,23.18
2022-07-25T15:29:31.342Z,23.24
2022-07-25T15:32:01.366Z,23.07
2022-07-25T15:34:31.312Z,23.35
2022-07-25T15:37:00.365Z,23.07
2022-07-25T15:39:29.201Z,23.37
2022-07-25T15:41:57.843Z,23.69
2022-07-25T15:44:27.803Z,23.73
2022-07-25T15:46:57.021Z,23.75
2022-07-25T15:49:26.136Z,23.50
2022-07-25T15:51:54.883Z,23.41
2022-07-25T15:54:27.687Z,23.85
2022-07-25T15:56:58.179Z,23.79
2022-07-25T15:59:28.609Z,24.13
2022-07-25T16:01:57.733Z,24.24
2022-07-25T16:04:26.512Z,24.25
2022-07-25T16:06:55.206Z,24.19
2022-07-25T16:09:25.649Z,24.48
2022-07-25T16:11:54.383Z,24.26
2022-07-25T16:14:23.099Z,24.46
2022-07-25T16:16:57.161Z,24.59
2022-07-25T16:19:25.826Z,24.34
2022-07-25T16:21:54.519Z,24.79
2022-07-25T16:24:23.386Z,25.08
2022-07-25T16:26:52.017Z,25.17
2022-07-25T16:29:20.861Z,25.89
2022-07-25T16:31:49.977Z,26.25
2022-07-25T16:34:20.038Z,26.03
2022-07-25T16:36:48.826Z,26.15
2022-07-25T16:39:17.484Z,25.92
2022-07-25T16:41:46.442Z,25.36
2022-07-25T16:44:15.102Z,25.25
2022-07-25T16:46:43.850Z,25.61
2022-07-25T16:49:15.620Z,25.68
2022-07-25T16:51:46.722Z,26.05
2022-07-25T16:54:15.626Z,26.21
2022-07-25T16:56:44.548Z,26.23
2022-07-25T16:59:13.425Z,25.96
2022-07-25T17:01:42.201Z,26.28
2022-07-25T17:04:10.893Z,26.02
2022-07-25T17:06:41.699Z,26.63
2022-07-25T17:09:12.009Z,26.78
2022-07-25T17:11:40.689Z,27.07
2022-07-25T17:14:09.667Z,27.62
2022-07-25T17:16:38.385Z,27.77
2022-07-25T17:19:07.750Z,28.12
2022-07-25T17:21:36.893Z,28.10
2022-07-25T17:24:06.462Z,28.39
2022-07-25T17:26:37.444Z,28.83
2022-07-25T17:29:09.251Z,29.07
2022-07-25T17:31:38.452Z,29.34
2022-07-25T17:34:07.131Z,29.32
2022-07-25T17:36:36.758Z,29.74
2022-07-25T17:39:05.859Z,29.91
2022-07-25T17:41:36.303Z,30.08
2022-07-25T17:44:09.945Z,30.22
2022-07-25T17:46:40.737Z,29.98
2022-07-25T17:49:09.793Z,30.11
2022-07-25T17:51:38.941Z,30.30
2022-07-25T17:54:08.004Z,30.57
2022-07-25T17:56:39.133Z,30.86
2022-07-25T17:59:09.523Z,30.74
2022-07-25T18:01:40.003Z,30.95
2022-07-25T18:04:09.494Z,31.38
2022-07-25T18:06:38.523Z,31.41
2022-07-25T18:09:07.247Z,31.62
2022-07-25T18:11:37.594Z,31.43
2022-07-25T18:14:06.669Z,31.96
2022-07-25T18:16:35.856Z,32.08
2022-07-25T18:19:05.527Z,32.04
2022-07-25T18:21:34.372Z,32.44
2022-07-25T18:24:03.143Z,32.19
2022-07-25T18:26:31.858Z,36.39
2022-07-25T18:29:02.383Z,38.25
2022-07-25T18:31:31.463Z,39.33
2022-07-25T18:34:00.599Z,40.70
2022-07-25T18:36:29.767Z,42.95
2022-07-25T18:38:59.103Z,44.85
2022-07-25T18:41:29.925Z,46.79
2022-07-25T18:44:01.025Z,48.82
2022-07-25T18:46:32.895Z,51.56
2022-07-25T18:49:03.180Z,54.87
2022-07-25T18:51:31.903Z,59.61
2022-07-25T18:54:00.690Z,62.17
2022-07-25T18:56:30.057Z,65.60
2022-07-25T18:58:58.880Z,67.30
2022-07-25T19:01:30.503Z,70.40
2022-07-25T19:03:59.189Z,74.19
2022-07-25T19:06:28.177Z,76.56
2022-07-25T19:08:56.954Z,78.27
2022-07-25T19:11:26.344Z,78.79
2022-07-25T19:13:55.516Z,80.90
2022-07-25T19:16:26.670Z,81.45
2022-07-25T19:18:56.871Z,81.06
2022-07-25T19:21:26.031Z,81.51
2022-07-25T19:23:55.012Z,83.97
2022-07-25T19:26:23.861Z,82.45
2022-07-25T19:28:52.818Z,82.94
2022-07-25T19:31:22.012Z,85.27
2022-07-25T19:33:50.903Z,85.40
2022-07-25T19:36:25.449Z,87.30
2022-07-25T19:38:54.148Z,86.80
2022-07-25T19:41:23.237Z,86.69
2022-07-25T19:43:54.745Z,86.63
2022-07-25T19:46:25.145Z,84.36
2022-07-25T19:48:54.048Z,84.86
2022-07-25T19:51:24.271Z,85.10
2022-07-25T19:53:53.069Z,83.76
2022-07-25T19:56:21.973Z,84.30
2022-07-25T19:58:51.300Z,83.06
2022-07-25T20:01:20.905Z,82.29
2022-07-25T20:03:50.862Z,81.09
2022-07-25T20:06:24.862Z,80.20
2022-07-25T20:08:55.198Z,80.36
2022-07-25T20:11:24.141Z,80.17
2022-07-25T20:13:53.456Z,80.21
2022-07-25T20:16:22.449Z,80.95
2022-07-25T20:18:51.381Z,83.30
2022-07-25T20:21:20.671Z,83.15
2022-07-25T20:23:49.554Z,83.24
2022-07-25T20:26:19.828Z,83.10
2022-07-25T20:28:48.632Z,84.82
2022-07-25T20:31:18.480Z,85.03
2022-07-25T20:33:47.410Z,84.50
2022-07-25T20:36:19.791Z,84.97
2022-07-25T20:38:48.938Z,84.61
2022-07-25T20:41:19.384Z,85.32
2022-07-25T20:43:48.136Z,86.45
2022-07-25T20:46:16.971Z,87.05
2022-07-25T20:48:45.711Z,84.90
2022-07-25T20:51:14.523Z,84.02
2022-07-25T20:53:43.411Z,83.71
2022-07-25T20:56:12.386Z,83.49
2022-07-25T20:58:42.647Z,85.60
2022-07-25T21:01:12.364Z,84.54
2022-07-25T21:03:41.175Z,84.67
2022-07-25T21:06:10.373Z,84.31
2022-07-25T21:08:39.500Z,87.82
2022-07-25T21:11:08.672Z,88.22
2022-07-25T21:13:38.288Z,90.04
2022-07-25T21:16:09.330Z,91.73
2022-07-25T21:18:38.408Z,91.81
2022-07-25T21:21:12.069Z,92.28
2022-07-25T21:23:42.245Z,92.42
2022-07-25T21:26:11.035Z,93.17
2022-07-25T21:28:39.665Z,93.06
2022-07-25T21:31:13.814Z,92.91
2022-07-25T21:33:43.002Z,92.38
2022-07-25T21:41:54.878Z,94.30
2022-07-25T21:44:24.541Z,93.37
2022-07-25T21:46:54.081Z,92.59
2022-07-25T21:49:42.579Z,92.03
2022-07-25T21:52:13.642Z,91.62
2022-07-25T21:54:44.919Z,91.41
2022-07-25T21:57:14.545Z,90.96
2022-07-25T21:59:43.891Z,90.81
2022-07-25T22:02:13.408Z,90.85
2022-07-25T22:04:42.302Z,90.18
2022-07-25T22:07:13.418Z,90.05
2022-07-25T22:09:44.604Z,90.65
2022-07-25T22:12:15.966Z,95.01
2022-07-25T22:14:47.507Z,96.75
2022-07-25T22:17:16.775Z,97.99
2022-07-25T22:19:45.755Z,98.19
2022-07-25T22:22:14.650Z,98.50
2022-07-25T22:24:46.728Z,99.01
2022-07-25T22:27:15.820Z,98.67
2022-07-25T22:29:44.450Z,99.13
2022-07-25T22:32:13.497Z,99.60
2022-07-25T22:34:42.291Z,100.00
2022-07-25T22:37:11.061Z,100.00
2022-07-25T22:39:40.097Z,100.00
2022-07-25T22:42:10.847Z,100.00
2022-07-25T22:44:44.708Z,100.00
2022-07-25T22:47:13.328Z,100.00
2022-07-25T22:49:42.250Z,100.00
2022-07-25T22:52:11.266Z,100.00
2022-07-25T22:54:40.295Z,100.00
2022-07-25T22:57:10.537Z,100.00
2022-07-25T22:59:39.714Z,100.00
2022-07-25T23:02:08.430Z,100.00
2022-07-25T23:04:38.418Z,100.00
2022-07-25T23:07:45.002Z,100.00
2022-07-25T23:10:17.432Z,100.00
2022-07-25T23:12:47.986Z,100.00
2022-07-25T23:15:21.197Z,100.00
2022-07-25T23:21:09.328Z,100.00
2022-07-25T23:24:03.188Z,100.00
2022-07-25T23:26:33.241Z,100.00
2022-07-25T23:29:03.403Z,100.00
2022-07-25T23:32:13.478Z,100.00
2022-07-25T23:35:14.157Z,100.00
2022-07-25T23:37:47.963Z,100.00
2022-07-25T23:44:29.913Z,100.00
2022-07-25T23:47:39.277Z,100.00
2022-07-25T23:50:14.429Z,100.00
2022-07-25T23:52:43.347Z,100.00
2022-07-25T23:55:12.029Z,100.00
2022-07-25T23:57:40.716Z,100.00
